Time;durP1;ratioP1;P1;durP2;ratioP2;P2;SDS_P1;SDS_P2;PMS_P1;PMS_P2;Temp;Humidity;BMP_temperature;BMP_pressure;BME280_temperature;BME280_humidity;BME280_pressure;Samples;Min_cycle;Max_cycle;Signal;HPM_P1;HPM_P2
2022/01/28 07:00:58;;;;;;;182.88;15.10;;;;;;;;;;5521701;23;20057;-85
2022/01/28 07:03:25;;;;;;;199.65;14.15;;;;;;;;;;4822236;29;20057;-83
2022/01/28 07:05:52;;;;;;;151.98;12.60;;;;;;;;;;4822550;29;20114;-83
2022/01/28 07:08:19;;;;;;;137.13;13.23;;;;;;;;;;4839750;29;20053;-83
2022/01/28 07:10:45;;;;;;;172.77;12.70;;;;;;;;;;4838021;29;20042;-83
2022/01/28 07:13:13;;;;;;;218.15;14.77;;;;;;;;;;4821916;29;20572;-81
2022/01/28 07:15:40;;;;;;;94.67;11.77;;;;;;;;;;4839685;29;20050;-83
2022/01/28 07:18:06;;;;;;;175.90;12.93;;;;;;;;;;4837038;29;20467;-82
2022/01/28 07:20:36;;;;;;;128.95;11.57;;;;;;;;;;4822519;29;20121;-83
2022/01/28 07:23:03;;;;;;;233.18;14.18;;;;;;;;;;4837533;29;20106;-83
2022/01/28 07:25:30;;;;;;;287.20;15.30;;;;;;;;;;4836414;29;20102;-83
2022/01/28 07:27:56;;;;;;;310.35;17.38;;;;;;;;;;4836632;29;20078;-83
2022/01/28 07:30:23;;;;;;;288.00;15.60;;;;;;;;;;4836503;29;20057;-83
2022/01/28 07:32:51;;;;;;;424.55;18.17;;;;;;;;;;4835518;29;20050;-83
2022/01/28 07:35:18;;;;;;;231.80;14.98;;;;;;;;;;4835275;29;20110;-83
2022/01/28 07:37:44;;;;;;;475.65;18.70;;;;;;;;;;4834822;29;20050;-83
2022/01/28 07:40:12;;;;;;;150.65;11.70;;;;;;;;;;4833285;29;20141;-83
2022/01/28 07:42:40;;;;;;;431.35;17.75;;;;;;;;;;4833712;29;20129;-83
2022/01/28 07:45:08;;;;;;;350.90;15.85;;;;;;;;;;4833331;29;20058;-82
2022/01/28 07:47:38;;;;;;;360.75;15.25;;;;;;;;;;4820817;29;20053;-83
2022/01/28 07:50:06;;;;;;;359.50;17.23;;;;;;;;;;4837707;29;20054;-84
2022/01/28 07:52:33;;;;;;;441.83;18.42;;;;;;;;;;4835255;29;20057;-83
2022/01/28 07:54:59;;;;;;;364.27;15.75;;;;;;;;;;4835556;29;20099;-83
2022/01/28 07:57:26;;;;;;;366.80;13.77;;;;;;;;;;4834908;29;20075;-83
2022/01/28 07:59:53;;;;;;;437.27;15.25;;;;;;;;;;4836708;29;20456;-83
2022/01/28 08:02:19;;;;;;;407.45;17.15;;;;;;;;;;4836697;29;20580;-83
2022/01/28 08:04:46;;;;;;;348.95;14.88;;;;;;;;;;4836552;29;20050;-83
2022/01/28 08:07:13;;;;;;;379.08;15.35;;;;;;;;;;4838596;29;20054;-83
2022/01/28 08:09:39;;;;;;;396.38;15.60;;;;;;;;;;4838908;29;20050;-83
2022/01/28 08:12:06;;;;;;;290.73;12.65;;;;;;;;;;4822957;29;20649;-82
2022/01/28 08:14:33;;;;;;;337.95;13.65;;;;;;;;;;4841775;29;20046;-83
2022/01/28 08:17:00;;;;;;;299.45;12.95;;;;;;;;;;4840942;29;20057;-82
2022/01/28 08:19:26;;;;;;;340.73;15.15;;;;;;;;;;4839932;29;20049;-82
2022/01/28 08:21:53;;;;;;;341.35;15.82;;;;;;;;;;4838811;29;20102;-83
2022/01/28 08:24:19;;;;;;;149.27;10.80;;;;;;;;;;4838350;29;20126;-83
2022/01/28 08:26:46;;;;;;;312.77;16.70;;;;;;;;;;4841039;29;20102;-82
2022/01/28 08:29:13;;;;;;;219.98;14.65;;;;;;;;;;4839650;29;20106;-83
2022/01/28 08:31:40;;;;;;;309.45;23.73;;;;;;;;;;4838363;29;20095;-83
2022/01/28 08:34:07;;;;;;;296.05;24.27;;;;;;;;;;4837951;29;20052;-82
2022/01/28 08:36:35;;;;;;;308.30;24.33;;;;;;;;;;4841410;29;20046;-83
2022/01/28 08:39:05;;;;;;;184.38;20.70;;;;;;;;;;4838661;29;20412;-83
2022/01/28 08:41:33;;;;;;;222.20;25.05;;;;;;;;;;4838162;29;20042;-82
2022/01/28 08:43:59;;;;;;;177.48;21.77;;;;;;;;;;4839190;29;20102;-82
2022/01/28 08:46:26;;;;;;;125.93;17.63;;;;;;;;;;4838644;29;20046;-83
2022/01/28 08:48:53;;;;;;;154.95;18.08;;;;;;;;;;4838594;29;20049;-83
2022/01/28 08:51:20;;;;;;;93.38;13.23;;;;;;;;;;4837643;29;20050;-82
2022/01/28 08:53:47;;;;;;;119.72;14.05;;;;;;;;;;4839288;29;20050;-83
2022/01/28 08:56:14;;;;;;;92.78;16.17;;;;;;;;;;4840619;29;20404;-84
2022/01/28 08:58:40;;;;;;;78.35;11.85;;;;;;;;;;4838202;29;20126;-83
2022/01/28 09:01:09;;;;;;;85.72;10.40;;;;;;;;;;4836811;29;20050;-82
2022/01/28 09:03:36;;;;;;;;;;;;;;;;;;4838357;29;20045;-83
2022/01/28 09:06:03;;;;;;;48.53;8.15;;;;;;;;;;4838076;29;19935;-83
2022/01/28 09:08:29;;;;;;;42.78;8.75;;;;;;;;;;4840997;29;20058;-83
2022/01/28 09:10:58;;;;;;;69.78;10.45;;;;;;;;;;4837841;29;20056;-83
2022/01/28 09:13:30;;;;;;;59.13;8.45;;;;;;;;;;4823784;29;20046;-83
2022/01/28 09:15:57;;;;;;;56.08;8.63;;;;;;;;;;4836927;29;20110;-83
2022/01/28 09:18:25;;;;;;;48.13;7.80;;;;;;;;;;4821036;29;20061;-83
2022/01/28 09:20:52;;;;;;;38.67;7.20;;;;;;;;;;4838824;29;20134;-83
2022/01/28 09:23:19;;;;;;;48.22;8.25;;;;;;;;;;4839819;29;20066;-83
2022/01/28 09:25:46;;;;;;;33.05;8.63;;;;;;;;;;4823940;29;20079;-83
2022/01/28 09:28:12;;;;;;;44.10;8.20;;;;;;;;;;4837089;29;20489;-83
2022/01/28 09:30:39;;;;;;;38.53;7.60;;;;;;;;;;4838286;29;20415;-83
2022/01/28 09:33:06;;;;;;;25.70;6.97;;;;;;;;;;4839052;29;20478;-83
2022/01/28 09:35:34;;;;;;;25.95;4.47;;;;;;;;;;4840399;29;20054;-83
2022/01/28 09:38:02;;;;;;;14.50;5.13;;;;;;;;;;4837921;29;20073;-83
2022/01/28 09:40:29;;;;;;;29.80;5.25;;;;;;;;;;4837338;29;20050;-82
2022/01/28 09:42:56;;;;;;;30.10;4.90;;;;;;;;;;4837372;29;20103;-81
2022/01/28 09:45:24;;;;;;;37.40;5.93;;;;;;;;;;4836862;29;20054;-82
2022/01/28 09:47:56;;;;;;;37.53;7.43;;;;;;;;;;4838782;29;20050;-82
2022/01/28 09:50:28;;;;;;;25.48;6.50;;;;;;;;;;4839548;29;20072;-82
2022/01/28 09:52:55;;;;;;;23.90;6.22;;;;;;;;;;4833233;29;20090;-83
2022/01/28 09:55:24;;;;;;;44.35;4.40;;;;;;;;;;4836334;29;20050;-83
2022/01/28 09:57:53;;;;;;;43.95;5.15;;;;;;;;;;4837166;29;20049;-83
2022/01/28 10:00:22;;;;;;;47.58;5.25;;;;;;;;;;4836615;29;20043;-82
2022/01/28 10:02:55;;;;;;;42.28;4.68;;;;;;;;;;4838783;29;20507;-83
2022/01/28 10:05:27;;;;;;;70.82;6.32;;;;;;;;;;4839213;29;20153;-83
2022/01/28 10:08:17;;;;;;;80.80;6.07;;;;;;;;;;4837089;29;20075;-83
2022/01/28 10:10:47;;;;;;;54.50;6.05;;;;;;;;;;4836583;29;20396;-83
2022/01/28 10:13:31;;;;;;;110.05;6.93;;;;;;;;;;4838152;29;20102;-82
2022/01/28 10:16:01;;;;;;;124.68;6.72;;;;;;;;;;4836348;29;20122;-84
2022/01/28 10:18:42;;;;;;;96.47;7.90;;;;;;;;;;4839085;29;20472;-83
2022/01/28 10:21:25;;;;;;;111.70;7.20;;;;;;;;;;4823078;29;20465;-82
2022/01/28 10:24:10;;;;;;;100.53;7.93;;;;;;;;;;4838049;29;20050;-83
2022/01/28 10:26:40;;;;;;;70.60;6.95;;;;;;;;;;4836000;29;20046;-83
2022/01/28 10:29:21;;;;;;;25.30;6.60;;;;;;;;;;4822406;29;20106;-82
2022/01/28 10:31:52;;;;;;;84.32;8.57;;;;;;;;;;4836483;29;20073;-83
2022/01/28 10:34:38;;;;;;;34.38;6.85;;;;;;;;;;4836170;29;20062;-83
2022/01/28 10:37:29;;;;;;;30.38;6.43;;;;;;;;;;4837755;29;20495;-83
2022/01/28 10:40:09;;;;;;;37.00;7.75;;;;;;;;;;4829585;29;20058;-83
2022/01/28 10:42:53;;;;;;;27.45;6.97;;;;;;;;;;4836498;29;20049;-83
2022/01/28 10:45:24;;;;;;;19.42;5.82;;;;;;;;;;4836661;29;20112;-83
2022/01/28 10:47:53;;;;;;;22.13;6.40;;;;;;;;;;4838183;29;20118;-82
2022/01/28 10:50:25;;;;;;;21.25;6.72;;;;;;;;;;4838553;29;20069;-83
2022/01/28 10:53:08;;;;;;;16.35;7.10;;;;;;;;;;4838473;29;20114;-82
2022/01/28 10:56:00;;;;;;;25.75;5.93;;;;;;;;;;4835986;29;20057;-83
2022/01/28 10:58:28;;;;;;;20.67;5.82;;;;;;;;;;4832216;29;20121;-83
2022/01/28 11:00:59;;;;;;;10.60;5.40;;;;;;;;;;4835989;29;20427;-83
2022/01/28 11:03:27;;;;;;;9.07;3.90;;;;;;;;;;4836088;29;20129;-82
2022/01/28 11:06:01;;;;;;;13.55;3.75;;;;;;;;;;4836701;29;20054;-82
2022/01/28 11:08:30;;;;;;;9.35;4.20;;;;;;;;;;4838912;29;20082;-83
2022/01/28 11:10:57;;;;;;;;;;;;;;;;;;4836717;29;20867;-83
2022/01/28 11:13:23;;;;;;;4.70;3.08;;;;;;;;;;4835455;29;20430;-83
2022/01/28 11:15:50;;;;;;;6.03;3.83;;;;;;;;;;4835576;29;20050;-83
2022/01/28 11:18:18;;;;;;;4.72;3.10;;;;;;;;;;4835541;29;20536;-84
2022/01/28 11:20:49;;;;;;;3.60;2.80;;;;;;;;;;4822085;29;20054;-83
2022/01/28 11:23:45;;;;;;;3.05;2.30;;;;;;;;;;4836904;29;20046;-84
2022/01/28 11:26:28;;;;;;;3.75;2.70;;;;;;;;;;4836498;29;20045;-83
2022/01/28 11:29:02;;;;;;;4.32;2.35;;;;;;;;;;4821939;29;20107;-84
2022/01/28 11:31:49;;;;;;;4.50;3.60;;;;;;;;;;4836645;29;20864;-84
2022/01/28 11:34:22;;;;;;;5.38;3.78;;;;;;;;;;4834977;29;20516;-83
2022/01/28 11:36:50;;;;;;;6.40;5.18;;;;;;;;;;4835717;29;20102;-83
2022/01/28 11:39:46;;;;;;;6.93;4.63;;;;;;;;;;4835319;29;20095;-83
2022/01/28 11:42:17;;;;;;;4.75;3.40;;;;;;;;;;4821564;29;20526;-83
2022/01/28 11:44:50;;;;;;;3.40;2.60;;;;;;;;;;4838291;29;20095;-82
2022/01/28 11:47:25;;;;;;;3.13;2.50;;;;;;;;;;4836837;29;20041;-83
2022/01/28 11:49:59;;;;;;;3.35;2.88;;;;;;;;;;4835469;29;20046;-82
2022/01/28 11:52:29;;;;;;;6.35;4.40;;;;;;;;;;4835010;29;20525;-83
2022/01/28 11:55:16;;;;;;;2.72;2.30;;;;;;;;;;4835440;29;20519;-83
2022/01/28 11:58:05;;;;;;;3.67;2.88;;;;;;;;;;4834956;29;20042;-83
2022/01/28 12:00:33;;;;;;;3.17;2.85;;;;;;;;;;4835527;29;20102;-83
2022/01/28 12:03:00;;;;;;;5.63;4.65;;;;;;;;;;4836335;29;20058;-84
2022/01/28 12:05:32;;;;;;;3.78;3.38;;;;;;;;;;4813390;29;20472;-84
2022/01/28 12:08:01;;;;;;;2.67;2.35;;;;;;;;;;4831311;29;20847;-84
2022/01/28 12:10:30;;;;;;;3.88;3.15;;;;;;;;;;4832959;29;20053;-84
2022/01/28 12:13:00;;;;;;;2.97;2.63;;;;;;;;;;4823243;29;20076;-84
2022/01/28 12:15:30;;;;;;;4.35;3.00;;;;;;;;;;4831990;29;20046;-84
2022/01/28 12:18:11;;;;;;;5.40;2.78;;;;;;;;;;4832723;29;20275;-84
2022/01/28 12:20:47;;;;;;;4.90;3.05;;;;;;;;;;4833150;29;20057;-84
2022/01/28 12:23:13;;;;;;;5.53;3.50;;;;;;;;;;4832266;29;20080;-84
2022/01/28 12:25:46;;;;;;;5.60;3.83;;;;;;;;;;4821095;29;20097;-84
2022/01/28 12:28:30;;;;;;;7.93;4.53;;;;;;;;;;4820877;29;20042;-84
2022/01/28 12:31:19;;;;;;;10.75;5.70;;;;;;;;;;4835052;29;20050;-85
2022/01/28 12:33:49;;;;;;;9.57;5.65;;;;;;;;;;4834517;29;20054;-84
2022/01/28 12:36:21;;;;;;;10.25;5.47;;;;;;;;;;4834413;29;20054;-84
2022/01/28 12:39:08;;;;;;;11.75;7.20;;;;;;;;;;4837501;29;20110;-85
2022/01/28 12:41:50;;;;;;;13.88;7.60;;;;;;;;;;4834451;29;20053;-85
2022/01/28 12:44:18;;;;;;;8.45;5.00;;;;;;;;;;4837016;29;20523;-84
2022/01/28 12:46:57;;;;;;;7.00;4.95;;;;;;;;;;4836052;29;20045;-85
2022/01/28 12:49:32;;;;;;;6.53;5.20;;;;;;;;;;4836328;29;20068;-84
2022/01/28 12:52:03;;;;;;;5.55;4.70;;;;;;;;;;4837264;29;20102;-83
2022/01/28 12:54:35;;;;;;;6.50;4.72;;;;;;;;;;4838931;29;20046;-83
2022/01/28 12:57:03;;;;;;;6.47;4.60;;;;;;;;;;4825032;29;20050;-84
2022/01/28 12:59:30;;;;;;;7.22;4.88;;;;;;;;;;4838055;29;20129;-85
2022/01/28 13:01:57;;;;;;;5.55;4.47;;;;;;;;;;4839226;29;20068;-83
2022/01/28 13:04:36;;;;;;;7.70;5.43;;;;;;;;;;4840526;29;20527;-84
2022/01/28 13:09:50;;;;;;;6.60;4.28;;;;;;;;;;4837790;29;20046;-85
2022/01/28 13:12:22;;;;;;;6.10;4.32;;;;;;;;;;4839753;29;20114;-85
2022/01/28 13:14:49;;;;;;;6.00;3.90;;;;;;;;;;4840098;29;20065;-84
2022/01/28 13:17:23;;;;;;;4.65;3.85;;;;;;;;;;4839017;29;20082;-85
2022/01/28 13:19:58;;;;;;;4.30;3.65;;;;;;;;;;4839208;29;20110;-84
2022/01/28 13:22:27;;;;;;;4.43;3.65;;;;;;;;;;4838670;29;20053;-85
2022/01/28 13:24:54;;;;;;;4.82;3.50;;;;;;;;;;4840857;29;20595;-85
2022/01/28 13:27:22;;;;;;;11.02;6.53;;;;;;;;;;4839646;29;20134;-85
2022/01/28 13:29:52;;;;;;;15.05;8.88;;;;;;;;;;4841965;29;20046;-85
2022/01/28 13:32:29;;;;;;;16.90;11.50;;;;;;;;;;4840205;29;20054;-85
2022/01/28 13:35:01;;;;;;;42.45;7.15;;;;;;;;;;4836967;29;20042;-84
2022/01/28 13:37:44;;;;;;;9.25;4.90;;;;;;;;;;4837045;29;20050;-85
2022/01/28 13:40:29;;;;;;;8.40;6.90;;;;;;;;;;4836985;29;20053;-84
2022/01/28 13:43:09;;;;;;;10.10;7.60;;;;;;;;;;4837723;29;20098;-85
2022/01/28 13:45:43;;;;;;;8.02;5.18;;;;;;;;;;4837117;29;20056;-84
2022/01/28 13:48:18;;;;;;;7.13;5.15;;;;;;;;;;4825483;29;20053;-84
2022/01/28 13:50:47;;;;;;;6.80;6.10;;;;;;;;;;4839868;29;20102;-85
2022/01/28 13:53:32;;;;;;;6.30;5.45;;;;;;;;;;4837285;29;20106;-85
2022/01/28 13:55:59;;;;;;;6.35;5.53;;;;;;;;;;4837141;29;20050;-84
2022/01/28 13:58:26;;;;;;;8.98;5.57;;;;;;;;;;4837454;29;20054;-84
2022/01/28 14:00:53;;;;;;;6.40;5.38;;;;;;;;;;4836884;29;20069;-83
2022/01/28 14:03:27;;;;;;;6.40;5.60;;;;;;;;;;4836248;29;20066;-83
2022/01/28 14:06:02;;;;;;;10.65;7.07;;;;;;;;;;4822032;29;20050;-84
2022/01/28 14:08:53;;;;;;;11.55;9.60;;;;;;;;;;4814020;29;20050;-83
2022/01/28 14:11:39;;;;;;;11.40;10.23;;;;;;;;;;4838510;29;20545;-83
2022/01/28 14:14:15;;;;;;;10.82;9.40;;;;;;;;;;4838036;29;20420;-85
2022/01/28 14:16:44;;;;;;;9.02;7.95;;;;;;;;;;4837263;29;20046;-83
2022/01/28 14:19:10;;;;;;;8.68;7.70;;;;;;;;;;4836790;29;20042;-83
2022/01/28 14:21:39;;;;;;;10.93;8.88;;;;;;;;;;4836731;29;20057;-82
2022/01/28 14:24:06;;;;;;;9.40;8.50;;;;;;;;;;4836280;29;20075;-84
2022/01/28 14:26:41;;;;;;;10.65;9.52;;;;;;;;;;4839528;29;20066;-84
2022/01/28 14:31:41;;;;;;;7.65;6.90;;;;;;;;;;4836803;29;20050;-83
2022/01/28 14:34:07;;;;;;;9.00;6.97;;;;;;;;;;4838226;29;20102;-83
2022/01/28 14:36:40;;;;;;;8.30;5.85;;;;;;;;;;4836602;29;20481;-83
2022/01/28 14:39:09;;;;;;;5.93;5.32;;;;;;;;;;4822634;29;20049;-83
2022/01/28 14:41:37;;;;;;;7.30;6.45;;;;;;;;;;4838813;29;20506;-84
2022/01/28 14:44:04;;;;;;;7.32;5.38;;;;;;;;;;4836988;29;20047;-82
2022/01/28 14:46:34;;;;;;;7.53;5.32;;;;;;;;;;4838146;29;20075;-83
2022/01/28 14:49:06;;;;;;;5.18;3.80;;;;;;;;;;4837249;29;20069;-83
2022/01/28 14:51:35;;;;;;;5.63;4.22;;;;;;;;;;4837260;29;20049;-83
2022/01/28 14:54:03;;;;;;;5.78;3.97;;;;;;;;;;4823332;29;20056;-86
2022/01/28 14:56:30;;;;;;;5.25;4.25;;;;;;;;;;4836042;29;20050;-84
2022/01/28 14:58:57;;;;;;;6.30;4.38;;;;;;;;;;4839437;29;20106;-84
2022/01/28 15:01:25;;;;;;;5.22;3.85;;;;;;;;;;4823379;29;20061;-84
2022/01/28 15:03:52;;;;;;;4.60;2.95;;;;;;;;;;4836807;29;20453;-83
2022/01/28 15:06:21;;;;;;;3.10;2.60;;;;;;;;;;4835128;29;20127;-84
2022/01/28 15:08:49;;;;;;;3.70;2.70;;;;;;;;;;4822125;29;20046;-83
2022/01/28 15:11:32;;;;;;;3.15;2.85;;;;;;;;;;4835566;29;20146;-84
2022/01/28 15:13:58;;;;;;;3.65;3.00;;;;;;;;;;4835549;29;20122;-83
2022/01/28 15:16:25;;;;;;;4.60;3.20;;;;;;;;;;4835233;29;20050;-84
2022/01/28 15:18:52;;;;;;;3.72;2.90;;;;;;;;;;4836008;29;20122;-84
2022/01/28 15:21:18;;;;;;;4.18;3.20;;;;;;;;;;4837128;29;20054;-84
2022/01/28 15:23:45;;;;;;;3.45;2.60;;;;;;;;;;4838065;29;20083;-84
2022/01/28 15:26:12;;;;;;;3.58;2.63;;;;;;;;;;4839394;29;20076;-84
2022/01/28 15:28:59;;;;;;;4.72;3.28;;;;;;;;;;4822134;29;20057;-84
2022/01/28 15:34:44;;;;;;;4.07;2.30;;;;;;;;;;4835656;29;20106;-84
2022/01/28 15:37:11;;;;;;;3.25;2.38;;;;;;;;;;4821722;29;20050;-83
2022/01/28 15:39:38;;;;;;;2.90;1.92;;;;;;;;;;4821351;29;20061;-83
2022/01/28 15:42:08;;;;;;;6.28;3.25;;;;;;;;;;4835357;29;20113;-82
2022/01/28 15:44:35;;;;;;;7.60;3.50;;;;;;;;;;4833903;29;20053;-83
2022/01/28 15:47:04;;;;;;;10.85;4.60;;;;;;;;;;4836232;29;20061;-86
2022/01/28 15:49:31;;;;;;;1.95;1.20;;;;;;;;;;4820954;29;20464;-84
2022/01/28 15:51:58;;;;;;;6.90;4.35;;;;;;;;;;4834994;29;20488;-84
2022/01/28 15:54:24;;;;;;;1.33;1.05;;;;;;;;;;4834851;29;20563;-83
2022/01/28 15:56:51;;;;;;;1.70;0.93;;;;;;;;;;4837590;29;20121;-83
2022/01/28 15:59:18;;;;;;;0.80;0.80;;;;;;;;;;4836713;29;20046;-84
2022/01/28 16:01:45;;;;;;;4.90;1.10;;;;;;;;;;4821433;29;20522;-84
2022/01/28 16:04:16;;;;;;;1.27;1.00;;;;;;;;;;4836093;29;20129;-83
2022/01/28 16:06:43;;;;;;;2.47;1.42;;;;;;;;;;4836134;29;20050;-84
2022/01/28 16:09:10;;;;;;;1.40;1.00;;;;;;;;;;4835614;29;20054;-83
2022/01/28 16:11:55;;;;;;;0.95;0.75;;;;;;;;;;4821612;29;20138;-83
2022/01/28 16:19:39;;;;;;;2.70;2.20;;;;;;;;;;4835019;29;20077;-84
2022/01/28 16:22:07;;;;;;;3.20;2.05;;;;;;;;;;4834635;29;20042;-83
2022/01/28 16:24:35;;;;;;;2.20;1.67;;;;;;;;;;4823130;29;20054;-83
2022/01/28 16:27:03;;;;;;;2.63;1.30;;;;;;;;;;4824067;29;20141;-84
2022/01/28 16:29:31;;;;;;;1.00;0.70;;;;;;;;;;4839436;29;20495;-84
2022/01/28 16:31:58;;;;;;;2.00;0.80;;;;;;;;;;4826003;29;20561;-84
2022/01/28 16:34:25;;;;;;;1.88;1.77;;;;;;;;;;4839865;29;20125;-82
2022/01/28 16:37:09;;;;;;;1.80;1.42;;;;;;;;;;4839323;29;20050;-83
2022/01/28 16:39:38;;;;;;;1.52;1.40;;;;;;;;;;4841188;29;20050;-83
2022/01/28 16:42:08;;;;;;;1.40;1.30;;;;;;;;;;4825012;29;20526;-82
2022/01/28 16:44:44;;;;;;;3.22;1.58;;;;;;;;;;4840778;29;20111;-83
2022/01/28 16:47:13;;;;;;;1.80;0.95;;;;;;;;;;4840978;29;20075;-83
2022/01/28 16:49:43;;;;;;;2.33;1.13;;;;;;;;;;4839528;29;20056;-85
2022/01/28 16:52:10;;;;;;;1.00;0.90;;;;;;;;;;4840790;29;20091;-86
2022/01/28 16:54:37;;;;;;;1.75;1.10;;;;;;;;;;4842315;29;20110;-83
2022/01/28 16:57:04;;;;;;;1.20;1.10;;;;;;;;;;4841061;29;20054;-82
2022/01/28 16:59:31;;;;;;;2.75;1.48;;;;;;;;;;4844575;29;20137;-84
2022/01/28 17:01:57;;;;;;;2.92;1.20;;;;;;;;;;4830897;29;20050;-83
2022/01/28 17:04:25;;;;;;;2.35;1.42;;;;;;;;;;4845211;29;20062;-83
2022/01/28 17:06:51;;;;;;;2.05;1.60;;;;;;;;;;4822806;29;20136;-83
2022/01/28 17:09:25;;;;;;;2.75;1.58;;;;;;;;;;4838905;29;20053;-83
2022/01/28 17:14:42;;;;;;;2.90;1.48;;;;;;;;;;4750715;30;20051;-82
2022/01/28 17:17:09;;;;;;;4.95;4.35;;;;;;;;;;4749478;30;20088;-82
2022/01/28 17:19:36;;;;;;;3.95;2.58;;;;;;;;;;4753720;30;20113;-82
2022/01/28 17:22:03;;;;;;;1.73;1.63;;;;;;;;;;4765547;30;20044;-82
2022/01/28 17:24:32;;;;;;;2.22;2.03;;;;;;;;;;4764875;30;20124;-82
2022/01/28 17:27:05;;;;;;;3.85;3.10;;;;;;;;;;4765542;30;20494;-83
2022/01/28 17:29:33;;;;;;;1.35;1.17;;;;;;;;;;4765573;30;20063;-82
2022/01/28 17:32:01;;;;;;;1.98;1.30;;;;;;;;;;4765037;30;20085;-81
2022/01/28 17:34:28;;;;;;;1.90;1.58;;;;;;;;;;4763015;30;20093;-83
2022/01/28 17:36:55;;;;;;;1.52;1.23;;;;;;;;;;4761934;30;20097;-82
2022/01/28 17:39:22;;;;;;;2.55;2.00;;;;;;;;;;4764398;30;20553;-83
2022/01/28 17:41:48;;;;;;;1.92;1.80;;;;;;;;;;4765196;30;20398;-82
2022/01/28 17:44:15;;;;;;;3.75;2.38;;;;;;;;;;4750930;30;20051;-82
2022/01/28 17:46:42;;;;;;;2.00;1.58;;;;;;;;;;4764831;30;20075;-82
2022/01/28 17:49:09;;;;;;;1.88;1.67;;;;;;;;;;4764463;30;20054;-82
2022/01/28 17:51:35;;;;;;;2.15;1.77;;;;;;;;;;4796926;29;20048;-82
2022/01/28 17:54:02;;;;;;;3.05;2.17;;;;;;;;;;4823748;29;20054;-82
2022/01/28 17:56:29;;;;;;;3.50;2.55;;;;;;;;;;4847458;29;20415;-83
2022/01/28 17:58:55;;;;;;;3.45;2.22;;;;;;;;;;4844872;29;20049;-85
2022/01/28 18:01:22;;;;;;;1.70;1.50;;;;;;;;;;4828407;29;20212;-84
2022/01/28 18:03:48;;;;;;;5.20;3.95;;;;;;;;;;4847091;29;20515;-85
2022/01/28 18:06:15;;;;;;;7.63;5.25;;;;;;;;;;4847325;29;20049;-84
2022/01/28 18:08:42;;;;;;;2.78;1.70;;;;;;;;;;4832058;29;20046;-84
2022/01/28 18:11:09;;;;;;;2.05;1.50;;;;;;;;;;4852030;29;20045;-84
2022/01/28 18:13:36;;;;;;;4.32;2.50;;;;;;;;;;4850385;29;20049;-83
2022/01/28 18:16:05;;;;;;;3.65;3.00;;;;;;;;;;4846575;29;20056;-83
2022/01/28 18:18:32;;;;;;;2.47;1.73;;;;;;;;;;4847915;29;20046;-83
2022/01/28 18:20:59;;;;;;;2.75;2.05;;;;;;;;;;4835926;29;20049;-84
2022/01/28 18:23:26;;;;;;;14.48;12.02;;;;;;;;;;4847118;29;20060;-82
2022/01/28 18:25:53;;;;;;;3.40;2.55;;;;;;;;;;4844635;29;20054;-84
2022/01/28 18:28:20;;;;;;;6.03;4.43;;;;;;;;;;4838203;29;20054;-83
2022/01/28 18:30:47;;;;;;;20.45;18.17;;;;;;;;;;4840500;29;20050;-83
2022/01/28 18:33:14;;;;;;;14.57;13.07;;;;;;;;;;4850570;29;20041;-83
2022/01/28 18:35:41;;;;;;;6.38;5.22;;;;;;;;;;4827047;29;20468;-84
2022/01/28 18:38:12;;;;;;;10.02;8.95;;;;;;;;;;4839090;29;20050;-83
2022/01/28 18:40:39;;;;;;;9.88;8.98;;;;;;;;;;4838081;29;20054;-84
2022/01/28 18:43:06;;;;;;;3.97;3.20;;;;;;;;;;4834349;29;20062;-84
2022/01/28 18:45:41;;;;;;;5.30;3.55;;;;;;;;;;4837814;29;20061;-85
2022/01/28 18:48:09;;;;;;;3.55;2.88;;;;;;;;;;4829827;29;20074;-85
2022/01/28 18:50:36;;;;;;;4.45;3.08;;;;;;;;;;4837937;29;20054;-84
2022/01/28 18:53:03;;;;;;;5.80;3.70;;;;;;;;;;4836295;29;20102;-85
2022/01/28 18:55:31;;;;;;;5.38;3.30;;;;;;;;;;4821353;29;20050;-83
2022/01/28 18:57:58;;;;;;;5.13;4.55;;;;;;;;;;4838695;29;20069;-83
2022/01/28 19:00:25;;;;;;;6.78;5.60;;;;;;;;;;4836074;29;20058;-83
2022/01/28 19:02:52;;;;;;;8.70;5.00;;;;;;;;;;4837457;29;20094;-83
2022/01/28 19:05:19;;;;;;;7.68;5.75;;;;;;;;;;4837989;29;20106;-84
2022/01/28 19:07:46;;;;;;;8.43;6.15;;;;;;;;;;4820892;29;20042;-83
2022/01/28 19:10:20;;;;;;;7.22;6.18;;;;;;;;;;4831648;29;20046;-83
2022/01/28 19:12:50;;;;;;;8.20;6.60;;;;;;;;;;4835820;29;20125;-83
2022/01/28 19:15:21;;;;;;;7.55;6.55;;;;;;;;;;4831667;29;20101;-83
2022/01/28 19:17:48;;;;;;;8.35;7.38;;;;;;;;;;4837142;29;20544;-84
2022/01/28 19:20:16;;;;;;;8.20;6.78;;;;;;;;;;4814610;29;20050;-83
2022/01/28 19:22:43;;;;;;;11.13;8.68;;;;;;;;;;4833674;29;20042;-83
2022/01/28 19:25:16;;;;;;;13.10;10.55;;;;;;;;;;4834848;29;20049;-82
2022/01/28 19:27:43;;;;;;;12.20;10.77;;;;;;;;;;4833678;29;20057;-84
2022/01/28 19:30:10;;;;;;;12.18;10.88;;;;;;;;;;4834031;29;20046;-83
2022/01/28 19:32:38;;;;;;;13.57;10.35;;;;;;;;;;4837420;29;20106;-83
2022/01/28 19:35:10;;;;;;;33.03;18.65;;;;;;;;;;4834123;29;20523;-83
2022/01/28 19:37:38;;;;;;;20.50;16.25;;;;;;;;;;4836441;29;20056;-83
2022/01/28 19:40:07;;;;;;;24.00;17.88;;;;;;;;;;4832848;29;20081;-83
2022/01/28 19:42:34;;;;;;;;;;;;;;;;;;4835954;29;20087;-82
2022/01/28 19:45:01;;;;;;;21.23;15.82;;;;;;;;;;4836919;29;20343;-83
2022/01/28 19:47:28;;;;;;;14.43;12.55;;;;;;;;;;4836484;29;20046;-82
2022/01/28 19:49:59;;;;;;;12.90;11.18;;;;;;;;;;4818461;29;20508;-84
2022/01/28 19:52:26;;;;;;;;;;;;;;;;;;4834251;29;20062;-83
2022/01/28 19:54:53;;;;;;;11.48;8.65;;;;;;;;;;4818287;29;20030;-83
2022/01/28 19:57:24;;;;;;;12.43;10.50;;;;;;;;;;4822458;29;20054;-84
2022/01/28 19:59:51;;;;;;;148.02;75.88;;;;;;;;;;4831475;29;20312;-84
2022/01/28 20:02:18;;;;;;;114.80;64.35;;;;;;;;;;4797091;29;1182129;-83
2022/01/28 20:04:45;;;;;;;80.05;49.67;;;;;;;;;;4836510;29;20046;-84
2022/01/28 20:07:12;;;;;;;70.85;46.75;;;;;;;;;;4819969;29;20054;-84
2022/01/28 20:09:39;;;;;;;18.17;14.13;;;;;;;;;;4820396;29;20137;-85
2022/01/28 20:12:11;;;;;;;47.00;35.90;;;;;;;;;;4820771;29;20140;-84
2022/01/28 20:14:38;;;;;;;20.65;16.30;;;;;;;;;;4819817;29;20053;-83
2022/01/28 20:17:05;;;;;;;80.57;71.63;;;;;;;;;;4838655;29;20084;-83
2022/01/28 20:19:32;;;;;;;17.58;14.88;;;;;;;;;;4837180;29;20552;-85
2022/01/28 20:21:59;;;;;;;13.18;10.20;;;;;;;;;;4828161;29;20054;-85
2022/01/28 20:24:27;;;;;;;13.43;9.70;;;;;;;;;;4836761;29;20061;-83
2022/01/28 20:26:54;;;;;;;14.25;10.07;;;;;;;;;;4838823;29;20335;-84
2022/01/28 20:29:21;;;;;;;11.60;9.07;;;;;;;;;;4837279;29;20046;-84
2022/01/28 20:31:48;;;;;;;12.27;9.50;;;;;;;;;;4836230;29;20073;-82
2022/01/28 20:34:15;;;;;;;11.15;8.63;;;;;;;;;;4835149;29;20408;-83
2022/01/28 20:36:42;;;;;;;11.50;8.52;;;;;;;;;;4837732;29;20102;-83
2022/01/28 20:39:08;;;;;;;11.15;8.77;;;;;;;;;;4837478;29;20148;-83
2022/01/28 20:41:35;;;;;;;12.30;8.63;;;;;;;;;;4835815;29;20606;-82
2022/01/28 20:44:02;;;;;;;16.52;13.45;;;;;;;;;;4837288;29;20054;-83
2022/01/28 20:46:29;;;;;;;19.25;14.27;;;;;;;;;;4837088;29;20046;-84
2022/01/28 20:48:56;;;;;;;46.78;26.60;;;;;;;;;;4835855;29;20510;-84
2022/01/28 20:51:22;;;;;;;26.52;18.85;;;;;;;;;;4836519;29;20110;-83
2022/01/28 20:53:49;;;;;;;12.80;9.45;;;;;;;;;;4834999;29;20045;-84
2022/01/28 20:56:16;;;;;;;18.65;15.65;;;;;;;;;;4836901;29;20125;-83
2022/01/28 20:58:42;;;;;;;18.00;13.45;;;;;;;;;;4819480;29;20099;-84
2022/01/28 21:01:09;;;;;;;17.02;12.93;;;;;;;;;;4835979;29;20424;-83
2022/01/28 21:03:37;;;;;;;19.67;13.77;;;;;;;;;;4836480;29;20049;-83
2022/01/28 21:06:04;;;;;;;15.73;11.60;;;;;;;;;;4835378;29;20061;-83
2022/01/28 21:08:31;;;;;;;22.45;16.50;;;;;;;;;;4838000;29;20054;-83
2022/01/28 21:10:57;;;;;;;21.20;15.20;;;;;;;;;;4836890;29;20106;-83
2022/01/28 21:13:24;;;;;;;50.40;35.10;;;;;;;;;;4835544;29;20066;-83
2022/01/28 21:15:51;;;;;;;73.95;50.13;;;;;;;;;;4837229;29;20050;-83
2022/01/28 21:18:17;;;;;;;120.25;68.50;;;;;;;;;;4837159;29;20054;-83
2022/01/28 21:20:44;;;;;;;42.38;23.08;;;;;;;;;;4821645;29;20049;-84
2022/01/28 21:23:11;;;;;;;33.22;22.17;;;;;;;;;;4837217;29;20163;-82
2022/01/28 21:25:37;;;;;;;51.75;29.05;;;;;;;;;;4837043;29;20062;-81
2022/01/28 21:28:06;;;;;;;41.05;23.20;;;;;;;;;;4818467;29;20473;-82
2022/01/28 21:30:34;;;;;;;95.90;45.03;;;;;;;;;;4819326;29;20077;-83
2022/01/28 21:33:01;;;;;;;45.47;23.45;;;;;;;;;;4838675;29;20042;-82
2022/01/28 21:35:28;;;;;;;43.72;21.27;;;;;;;;;;4820218;29;20050;-81
2022/01/28 21:37:54;;;;;;;86.07;37.97;;;;;;;;;;4836621;29;20046;-81
2022/01/28 21:40:21;;;;;;;103.68;44.28;;;;;;;;;;4817620;29;20468;-81
2022/01/28 21:42:50;;;;;;;61.10;29.63;;;;;;;;;;4835822;29;20054;-82
2022/01/28 21:45:17;;;;;;;97.85;39.40;;;;;;;;;;4835746;29;20065;-82
2022/01/28 21:47:44;;;;;;;29.65;16.20;;;;;;;;;;4834806;29;20049;-82
2022/01/28 21:50:11;;;;;;;31.17;14.80;;;;;;;;;;4834045;29;20503;-81
2022/01/28 21:52:37;;;;;;;23.13;13.10;;;;;;;;;;4835429;29;20532;-82
2022/01/28 21:55:06;;;;;;;29.58;16.08;;;;;;;;;;4835099;29;20801;-81
2022/01/28 21:57:32;;;;;;;24.08;13.35;;;;;;;;;;4834639;29;20054;-82
2022/01/28 21:59:59;;;;;;;23.17;12.60;;;;;;;;;;4835653;29;20049;-82
2022/01/28 22:02:26;;;;;;;27.60;14.10;;;;;;;;;;4819389;29;20057;-82